sensor_id;sensor_type;location;lat;lon;timestamp;P1;durP1;ratioP1;P2;durP2;ratioP2
21955;SDS011;11142;49.930;8.606;2023-11-19T00:00:34;14.63;;;9.00;;
21955;SDS011;11142;49.930;8.606;2023-11-19T00:03:02;15.30;;;9.20;;
21955;SDS011;11142;49.930;8.606;2023-11-19T00:05:30;15.70;;;9.18;;
21955;SDS011;11142;49.930;8.606;2023-11-19T00:07:59;14.45;;;8.80;;
21955;SDS011;11142;49.930;8.606;2023-11-19T00:10:29;12.63;;;8.40;;
21955;SDS011;11142;49.930;8.606;2023-11-19T00:12:57;17.25;;;8.68;;
21955;SDS011;11142;49.930;8.606;2023-11-19T00:15:26;15.77;;;9.32;;
21955;SDS011;11142;49.930;8.606;2023-11-19T00:17:55;15.52;;;8.23;;
21955;SDS011;11142;49.930;8.606;2023-11-19T00:20:29;15.75;;;9.75;;
21955;SDS011;11142;49.930;8.606;2023-11-19T00:22:58;15.35;;;8.82;;
21955;SDS011;11142;49.930;8.606;2023-11-19T00:25:27;15.82;;;9.00;;
21955;SDS011;11142;49.930;8.606;2023-11-19T00:27:58;16.13;;;9.35;;
21955;SDS011;11142;49.930;8.606;2023-11-19T00:30:28;14.10;;;7.85;;
21955;SDS011;11142;49.930;8.606;2023-11-19T00:32:58;14.80;;;8.20;;
21955;SDS011;11142;49.930;8.606;2023-11-19T00:35:27;12.90;;;7.88;;
21955;SDS011;11142;49.930;8.606;2023-11-19T00:37:54;19.40;;;10.10;;
21955;SDS011;11142;49.930;8.606;2023-11-19T00:40:23;15.23;;;8.27;;
21955;SDS011;11142;49.930;8.606;2023-11-19T00:42:51;16.45;;;8.50;;
21955;SDS011;11142;49.930;8.606;2023-11-19T00:45:23;13.80;;;7.70;;
21955;SDS011;11142;49.930;8.606;2023-11-19T00:47:56;11.70;;;7.35;;
21955;SDS011;11142;49.930;8.606;2023-11-19T00:50:26;15.88;;;7.72;;
21955;SDS011;11142;49.930;8.606;2023-11-19T00:52:54;13.63;;;7.60;;
21955;SDS011;11142;49.930;8.606;2023-11-19T00:55:23;13.23;;;7.10;;
21955;SDS011;11142;49.930;8.606;2023-11-19T00:57:51;12.85;;;7.55;;
21955;SDS011;11142;49.930;8.606;2023-11-19T01:00:20;11.63;;;6.75;;
21955;SDS011;11142;49.930;8.606;2023-11-19T01:02:50;12.38;;;7.45;;
21955;SDS011;11142;49.930;8.606;2023-11-19T01:05:20;11.93;;;8.05;;
21955;SDS011;11142;49.930;8.606;2023-11-19T01:07:50;14.95;;;8.45;;
21955;SDS011;11142;49.930;8.606;2023-11-19T01:10:21;12.65;;;7.47;;
21955;SDS011;11142;49.930;8.606;2023-11-19T01:12:51;11.77;;;7.18;;
21955;SDS011;11142;49.930;8.606;2023-11-19T01:15:20;11.25;;;7.38;;
21955;SDS011;11142;49.930;8.606;2023-11-19T01:17:49;12.00;;;6.80;;
21955;SDS011;11142;49.930;8.606;2023-11-19T01:20:21;10.40;;;6.95;;
21955;SDS011;11142;49.930;8.606;2023-11-19T01:22:51;10.48;;;6.53;;
21955;SDS011;11142;49.930;8.606;2023-11-19T01:25:19;12.88;;;7.00;;
21955;SDS011;11142;49.930;8.606;2023-11-19T01:27:47;9.68;;;6.07;;
21955;SDS011;11142;49.930;8.606;2023-11-19T01:30:17;10.88;;;6.57;;
21955;SDS011;11142;49.930;8.606;2023-11-19T01:32:48;13.40;;;6.97;;
21955;SDS011;11142;49.930;8.606;2023-11-19T01:35:17;12.90;;;7.22;;
21955;SDS011;11142;49.930;8.606;2023-11-19T01:37:46;7.28;;;5.32;;
21955;SDS011;11142;49.930;8.606;2023-11-19T01:40:14;10.50;;;6.55;;
21955;SDS011;11142;49.930;8.606;2023-11-19T01:42:43;9.10;;;5.72;;
21955;SDS011;11142;49.930;8.606;2023-11-19T01:45:11;8.32;;;5.60;;
21955;SDS011;11142;49.930;8.606;2023-11-19T01:47:52;12.50;;;5.63;;
21955;SDS011;11142;49.930;8.606;2023-11-19T01:50:21;9.27;;;5.93;;
21955;SDS011;11142;49.930;8.606;2023-11-19T01:52:52;8.10;;;5.25;;
21955;SDS011;11142;49.930;8.606;2023-11-19T01:55:24;12.30;;;5.72;;
21955;SDS011;11142;49.930;8.606;2023-11-19T01:57:55;8.07;;;5.40;;
21955;SDS011;11142;49.930;8.606;2023-11-19T02:00:27;10.03;;;5.50;;
21955;SDS011;11142;49.930;8.606;2023-11-19T02:02:56;9.05;;;5.50;;
21955;SDS011;11142;49.930;8.606;2023-11-19T02:05:25;8.60;;;5.47;;
21955;SDS011;11142;49.930;8.606;2023-11-19T02:07:54;8.43;;;5.03;;
21955;SDS011;11142;49.930;8.606;2023-11-19T02:10:23;7.45;;;4.50;;
21955;SDS011;11142;49.930;8.606;2023-11-19T02:12:52;6.75;;;4.30;;
21955;SDS011;11142;49.930;8.606;2023-11-19T02:15:32;7.43;;;4.70;;
21955;SDS011;11142;49.930;8.606;2023-11-19T02:18:19;6.97;;;4.28;;
21955;SDS011;11142;49.930;8.606;2023-11-19T02:20:51;7.88;;;4.68;;
21955;SDS011;11142;49.930;8.606;2023-11-19T02:23:23;9.13;;;4.15;;
21955;SDS011;11142;49.930;8.606;2023-11-19T02:25:56;5.85;;;3.95;;
21955;SDS011;11142;49.930;8.606;2023-11-19T02:28:31;6.57;;;3.85;;
21955;SDS011;11142;49.930;8.606;2023-11-19T02:30:59;5.80;;;3.60;;
21955;SDS011;11142;49.930;8.606;2023-11-19T02:33:30;6.50;;;4.05;;
21955;SDS011;11142;49.930;8.606;2023-11-19T02:35:58;6.47;;;4.20;;
21955;SDS011;11142;49.930;8.606;2023-11-19T02:38:28;4.60;;;3.35;;
21955;SDS011;11142;49.930;8.606;2023-11-19T02:40:57;5.78;;;4.00;;
21955;SDS011;11142;49.930;8.606;2023-11-19T02:43:26;6.38;;;4.32;;
21955;SDS011;11142;49.930;8.606;2023-11-19T02:45:56;5.50;;;3.50;;
21955;SDS011;11142;49.930;8.606;2023-11-19T02:48:25;6.55;;;4.05;;
21955;SDS011;11142;49.930;8.606;2023-11-19T02:50:54;7.28;;;3.60;;
21955;SDS011;11142;49.930;8.606;2023-11-19T02:53:21;6.13;;;3.80;;
21955;SDS011;11142;49.930;8.606;2023-11-19T02:55:50;5.65;;;3.58;;
21955;SDS011;11142;49.930;8.606;2023-11-19T02:58:18;4.60;;;3.45;;
21955;SDS011;11142;49.930;8.606;2023-11-19T03:00:51;4.50;;;3.13;;
21955;SDS011;11142;49.930;8.606;2023-11-19T03:03:27;5.95;;;3.80;;
21955;SDS011;11142;49.930;8.606;2023-11-19T03:06:05;5.28;;;3.42;;
21955;SDS011;11142;49.930;8.606;2023-11-19T03:08:35;4.68;;;3.50;;
21955;SDS011;11142;49.930;8.606;2023-11-19T03:11:04;4.85;;;3.15;;
21955;SDS011;11142;49.930;8.606;2023-11-19T03:13:33;4.72;;;3.63;;
21955;SDS011;11142;49.930;8.606;2023-11-19T03:16:00;5.90;;;3.40;;
21955;SDS011;11142;49.930;8.606;2023-11-19T03:18:34;5.15;;;3.78;;
21955;SDS011;11142;49.930;8.606;2023-11-19T03:21:02;4.85;;;3.67;;
21955;SDS011;11142;49.930;8.606;2023-11-19T03:23:30;6.32;;;3.67;;
21955;SDS011;11142;49.930;8.606;2023-11-19T03:25:58;8.52;;;4.07;;
21955;SDS011;11142;49.930;8.606;2023-11-19T03:28:29;8.10;;;3.95;;
21955;SDS011;11142;49.930;8.606;2023-11-19T03:30:58;4.88;;;3.50;;
21955;SDS011;11142;49.930;8.606;2023-11-19T03:33:26;4.93;;;3.78;;
21955;SDS011;11142;49.930;8.606;2023-11-19T03:35:57;5.82;;;3.67;;
21955;SDS011;11142;49.930;8.606;2023-11-19T03:38:26;4.93;;;3.40;;
21955;SDS011;11142;49.930;8.606;2023-11-19T03:40:54;6.18;;;3.63;;
21955;SDS011;11142;49.930;8.606;2023-11-19T03:43:22;5.78;;;3.97;;
21955;SDS011;11142;49.930;8.606;2023-11-19T03:45:50;4.50;;;3.20;;
21955;SDS011;11142;49.930;8.606;2023-11-19T03:48:18;6.82;;;3.90;;
21955;SDS011;11142;49.930;8.606;2023-11-19T03:50:46;5.22;;;3.70;;
21955;SDS011;11142;49.930;8.606;2023-11-19T03:53:16;6.80;;;4.22;;
21955;SDS011;11142;49.930;8.606;2023-11-19T03:55:45;5.40;;;3.97;;
21955;SDS011;11142;49.930;8.606;2023-11-19T03:58:13;5.22;;;3.42;;
21955;SDS011;11142;49.930;8.606;2023-11-19T04:00:41;4.65;;;3.30;;
21955;SDS011;11142;49.930;8.606;2023-11-19T04:03:12;5.65;;;3.60;;
21955;SDS011;11142;49.930;8.606;2023-11-19T04:05:40;4.85;;;3.58;;
21955;SDS011;11142;49.930;8.606;2023-11-19T04:08:09;5.85;;;3.63;;
21955;SDS011;11142;49.930;8.606;2023-11-19T04:10:39;5.57;;;3.47;;
21955;SDS011;11142;49.930;8.606;2023-11-19T04:13:06;5.93;;;3.78;;
21955;SDS011;11142;49.930;8.606;2023-11-19T04:15:35;4.63;;;3.33;;
21955;SDS011;11142;49.930;8.606;2023-11-19T04:18:03;5.78;;;3.85;;
21955;SDS011;11142;49.930;8.606;2023-11-19T04:20:32;5.32;;;3.90;;
21955;SDS011;11142;49.930;8.606;2023-11-19T04:23:00;4.90;;;3.83;;
21955;SDS011;11142;49.930;8.606;2023-11-19T04:25:27;8.30;;;4.35;;
21955;SDS011;11142;49.930;8.606;2023-11-19T04:27:57;6.88;;;4.05;;
21955;SDS011;11142;49.930;8.606;2023-11-19T04:30:25;7.13;;;4.50;;
21955;SDS011;11142;49.930;8.606;2023-11-19T04:32:53;5.90;;;4.40;;
21955;SDS011;11142;49.930;8.606;2023-11-19T04:35:21;7.38;;;4.13;;
21955;SDS011;11142;49.930;8.606;2023-11-19T04:37:49;5.95;;;4.07;;
21955;SDS011;11142;49.930;8.606;2023-11-19T04:40:17;5.70;;;3.70;;
21955;SDS011;11142;49.930;8.606;2023-11-19T04:42:45;6.30;;;4.47;;
21955;SDS011;11142;49.930;8.606;2023-11-19T04:45:17;13.32;;;4.30;;
21955;SDS011;11142;49.930;8.606;2023-11-19T04:47:45;7.80;;;4.40;;
21955;SDS011;11142;49.930;8.606;2023-11-19T04:50:13;6.13;;;4.35;;
21955;SDS011;11142;49.930;8.606;2023-11-19T04:52:41;5.88;;;4.57;;
21955;SDS011;11142;49.930;8.606;2023-11-19T04:55:12;5.55;;;4.18;;
21955;SDS011;11142;49.930;8.606;2023-11-19T04:57:41;5.95;;;4.32;;
21955;SDS011;11142;49.930;8.606;2023-11-19T05:00:10;7.60;;;4.18;;
21955;SDS011;11142;49.930;8.606;2023-11-19T05:02:45;7.32;;;4.45;;
21955;SDS011;11142;49.930;8.606;2023-11-19T05:05:13;6.82;;;4.32;;
21955;SDS011;11142;49.930;8.606;2023-11-19T05:07:44;6.75;;;4.80;;
21955;SDS011;11142;49.930;8.606;2023-11-19T05:10:12;7.47;;;4.78;;
21955;SDS011;11142;49.930;8.606;2023-11-19T05:12:41;10.15;;;5.25;;
21955;SDS011;11142;49.930;8.606;2023-11-19T05:15:09;9.73;;;5.45;;
21955;SDS011;11142;49.930;8.606;2023-11-19T05:17:39;7.63;;;5.05;;
21955;SDS011;11142;49.930;8.606;2023-11-19T05:20:09;7.63;;;5.07;;
21955;SDS011;11142;49.930;8.606;2023-11-19T05:22:42;8.07;;;5.30;;
21955;SDS011;11142;49.930;8.606;2023-11-19T05:25:10;8.05;;;4.93;;
21955;SDS011;11142;49.930;8.606;2023-11-19T05:27:38;7.45;;;4.97;;
21955;SDS011;11142;49.930;8.606;2023-11-19T05:30:07;7.30;;;4.65;;
21955;SDS011;11142;49.930;8.606;2023-11-19T05:32:37;8.48;;;4.32;;
21955;SDS011;11142;49.930;8.606;2023-11-19T05:35:07;8.10;;;4.85;;
21955;SDS011;11142;49.930;8.606;2023-11-19T05:37:37;6.38;;;4.60;;
21955;SDS011;11142;49.930;8.606;2023-11-19T05:40:06;6.10;;;4.18;;
21955;SDS011;11142;49.930;8.606;2023-11-19T05:42:41;7.45;;;4.68;;
21955;SDS011;11142;49.930;8.606;2023-11-19T05:45:10;8.45;;;4.75;;
21955;SDS011;11142;49.930;8.606;2023-11-19T05:47:39;7.55;;;4.70;;
21955;SDS011;11142;49.930;8.606;2023-11-19T05:50:08;7.32;;;4.93;;
21955;SDS011;11142;49.930;8.606;2023-11-19T05:52:38;7.97;;;4.32;;
21955;SDS011;11142;49.930;8.606;2023-11-19T05:55:06;6.57;;;4.70;;
21955;SDS011;11142;49.930;8.606;2023-11-19T05:57:37;7.78;;;4.97;;
21955;SDS011;11142;49.930;8.606;2023-11-19T06:00:09;7.82;;;4.40;;
21955;SDS011;11142;49.930;8.606;2023-11-19T06:02:39;6.57;;;4.57;;
21955;SDS011;11142;49.930;8.606;2023-11-19T06:05:08;9.05;;;4.95;;
21955;SDS011;11142;49.930;8.606;2023-11-19T06:07:36;8.48;;;5.22;;
21955;SDS011;11142;49.930;8.606;2023-11-19T06:10:07;9.13;;;5.38;;
21955;SDS011;11142;49.930;8.606;2023-11-19T06:12:36;8.02;;;5.32;;
21955;SDS011;11142;49.930;8.606;2023-11-19T06:15:08;10.57;;;5.35;;
21955;SDS011;11142;49.930;8.606;2023-11-19T06:17:36;8.10;;;4.65;;
21955;SDS011;11142;49.930;8.606;2023-11-19T06:20:05;8.07;;;5.15;;
21955;SDS011;11142;49.930;8.606;2023-11-19T06:22:34;8.70;;;5.05;;
21955;SDS011;11142;49.930;8.606;2023-11-19T06:25:03;7.75;;;4.72;;
21955;SDS011;11142;49.930;8.606;2023-11-19T06:27:35;8.52;;;5.05;;
21955;SDS011;11142;49.930;8.606;2023-11-19T06:30:04;7.07;;;4.97;;
21955;SDS011;11142;49.930;8.606;2023-11-19T06:32:33;9.20;;;5.28;;
21955;SDS011;11142;49.930;8.606;2023-11-19T06:35:01;8.30;;;4.88;;
21955;SDS011;11142;49.930;8.606;2023-11-19T06:37:31;8.30;;;4.43;;
21955;SDS011;11142;49.930;8.606;2023-11-19T06:39:59;7.30;;;4.70;;
21955;SDS011;11142;49.930;8.606;2023-11-19T06:42:27;9.43;;;5.05;;
21955;SDS011;11142;49.930;8.606;2023-11-19T06:44:57;9.23;;;5.13;;
21955;SDS011;11142;49.930;8.606;2023-11-19T06:47:25;8.10;;;4.47;;
21955;SDS011;11142;49.930;8.606;2023-11-19T06:49:54;8.40;;;4.93;;
21955;SDS011;11142;49.930;8.606;2023-11-19T06:52:22;10.00;;;5.53;;
21955;SDS011;11142;49.930;8.606;2023-11-19T06:54:51;8.88;;;4.57;;
21955;SDS011;11142;49.930;8.606;2023-11-19T06:57:32;8.07;;;5.07;;
21955;SDS011;11142;49.930;8.606;2023-11-19T07:00:02;7.93;;;4.95;;
21955;SDS011;11142;49.930;8.606;2023-11-19T07:02:32;10.05;;;5.53;;
21955;SDS011;11142;49.930;8.606;2023-11-19T07:05:01;11.30;;;5.75;;
21955;SDS011;11142;49.930;8.606;2023-11-19T07:07:31;9.88;;;5.72;;
21955;SDS011;11142;49.930;8.606;2023-11-19T07:10:00;9.20;;;5.32;;
21955;SDS011;11142;49.930;8.606;2023-11-19T07:12:29;8.98;;;5.22;;
21955;SDS011;11142;49.930;8.606;2023-11-19T07:14:57;7.60;;;4.47;;
21955;SDS011;11142;49.930;8.606;2023-11-19T07:17:26;8.50;;;4.47;;
21955;SDS011;11142;49.930;8.606;2023-11-19T07:19:54;7.78;;;4.72;;
21955;SDS011;11142;49.930;8.606;2023-11-19T07:22:26;6.45;;;4.40;;
21955;SDS011;11142;49.930;8.606;2023-11-19T07:24:56;11.50;;;5.07;;
21955;SDS011;11142;49.930;8.606;2023-11-19T07:27:25;7.95;;;4.25;;
21955;SDS011;11142;49.930;8.606;2023-11-19T07:29:54;7.35;;;4.75;;
21955;SDS011;11142;49.930;8.606;2023-11-19T07:32:22;9.43;;;4.85;;
21955;SDS011;11142;49.930;8.606;2023-11-19T07:34:52;15.27;;;4.13;;
21955;SDS011;11142;49.930;8.606;2023-11-19T07:37:20;6.68;;;4.07;;
21955;SDS011;11142;49.930;8.606;2023-11-19T07:39:48;7.90;;;4.13;;
21955;SDS011;11142;49.930;8.606;2023-11-19T07:42:17;8.32;;;4.38;;
21955;SDS011;11142;49.930;8.606;2023-11-19T07:44:45;6.28;;;4.03;;
21955;SDS011;11142;49.930;8.606;2023-11-19T07:47:13;7.57;;;3.88;;
21955;SDS011;11142;49.930;8.606;2023-11-19T07:49:42;8.57;;;3.92;;
21955;SDS011;11142;49.930;8.606;2023-11-19T07:52:12;9.23;;;4.10;;
21955;SDS011;11142;49.930;8.606;2023-11-19T07:54:43;5.20;;;3.28;;
21955;SDS011;11142;49.930;8.606;2023-11-19T07:57:11;7.47;;;3.67;;
21955;SDS011;11142;49.930;8.606;2023-11-19T07:59:39;5.78;;;3.45;;
21955;SDS011;11142;49.930;8.606;2023-11-19T08:02:07;4.95;;;3.20;;
21955;SDS011;11142;49.930;8.606;2023-11-19T08:04:36;4.03;;;3.17;;
21955;SDS011;11142;49.930;8.606;2023-11-19T08:07:06;8.57;;;3.40;;
21955;SDS011;11142;49.930;8.606;2023-11-19T08:09:36;4.80;;;3.30;;
21955;SDS011;11142;49.930;8.606;2023-11-19T08:12:05;6.45;;;3.28;;
21955;SDS011;11142;49.930;8.606;2023-11-19T08:14:35;5.93;;;3.13;;
21955;SDS011;11142;49.930;8.606;2023-11-19T08:17:03;6.22;;;3.00;;
21955;SDS011;11142;49.930;8.606;2023-11-19T08:19:31;3.33;;;2.63;;
21955;SDS011;11142;49.930;8.606;2023-11-19T08:22:00;3.05;;;2.15;;
21955;SDS011;11142;49.930;8.606;2023-11-19T08:24:29;5.63;;;2.55;;
21955;SDS011;11142;49.930;8.606;2023-11-19T08:26:58;3.67;;;2.38;;
21955;SDS011;11142;49.930;8.606;2023-11-19T08:29:35;2.47;;;2.10;;
21955;SDS011;11142;49.930;8.606;2023-11-19T08:32:04;3.45;;;2.08;;
21955;SDS011;11142;49.930;8.606;2023-11-19T08:34:34;3.10;;;2.00;;
21955;SDS011;11142;49.930;8.606;2023-11-19T08:37:02;2.75;;;1.90;;
21955;SDS011;11142;49.930;8.606;2023-11-19T08:39:31;4.68;;;1.75;;
21955;SDS011;11142;49.930;8.606;2023-11-19T08:42:00;2.42;;;1.55;;
21955;SDS011;11142;49.930;8.606;2023-11-19T08:44:29;3.75;;;1.92;;
21955;SDS011;11142;49.930;8.606;2023-11-19T08:46:57;5.72;;;2.00;;
21955;SDS011;11142;49.930;8.606;2023-11-19T08:49:25;3.88;;;2.05;;
21955;SDS011;11142;49.930;8.606;2023-11-19T08:51:53;4.03;;;1.90;;
21955;SDS011;11142;49.930;8.606;2023-11-19T08:54:22;2.42;;;1.88;;
21955;SDS011;11142;49.930;8.606;2023-11-19T08:56:51;3.42;;;1.70;;
21955;SDS011;11142;49.930;8.606;2023-11-19T08:59:23;7.43;;;1.98;;
21955;SDS011;11142;49.930;8.606;2023-11-19T09:01:51;4.10;;;1.95;;
21955;SDS011;11142;49.930;8.606;2023-11-19T09:04:20;2.53;;;2.10;;
21955;SDS011;11142;49.930;8.606;2023-11-19T09:06:49;3.13;;;2.03;;
21955;SDS011;11142;49.930;8.606;2023-11-19T09:09:17;6.45;;;1.90;;
21955;SDS011;11142;49.930;8.606;2023-11-19T09:11:46;3.88;;;2.00;;
21955;SDS011;11142;49.930;8.606;2023-11-19T09:14:14;5.25;;;1.90;;
21955;SDS011;11142;49.930;8.606;2023-11-19T09:16:46;4.25;;;2.33;;
21955;SDS011;11142;49.930;8.606;2023-11-19T09:19:15;5.22;;;2.30;;
21955;SDS011;11142;49.930;8.606;2023-11-19T09:21:44;4.00;;;2.45;;
21955;SDS011;11142;49.930;8.606;2023-11-19T09:24:12;4.10;;;1.88;;
21955;SDS011;11142;49.930;8.606;2023-11-19T09:26:42;1.98;;;1.67;;
21955;SDS011;11142;49.930;8.606;2023-11-19T09:29:13;4.55;;;1.50;;
21955;SDS011;11142;49.930;8.606;2023-11-19T09:31:43;1.90;;;1.27;;
21955;SDS011;11142;49.930;8.606;2023-11-19T09:34:13;2.25;;;1.25;;
21955;SDS011;11142;49.930;8.606;2023-11-19T09:36:42;4.65;;;1.42;;
21955;SDS011;11142;49.930;8.606;2023-11-19T09:39:12;2.80;;;1.13;;
21955;SDS011;11142;49.930;8.606;2023-11-19T09:41:44;4.10;;;1.40;;
21955;SDS011;11142;49.930;8.606;2023-11-19T09:44:13;3.60;;;1.40;;
21955;SDS011;11142;49.930;8.606;2023-11-19T09:46:45;2.60;;;1.10;;
21955;SDS011;11142;49.930;8.606;2023-11-19T09:49:17;3.13;;;1.17;;
21955;SDS011;11142;49.930;8.606;2023-11-19T09:51:53;7.78;;;1.30;;
21955;SDS011;11142;49.930;8.606;2023-11-19T09:54:22;4.80;;;1.45;;
21955;SDS011;11142;49.930;8.606;2023-11-19T09:56:54;6.88;;;1.20;;
21955;SDS011;11142;49.930;8.606;2023-11-19T09:59:31;8.85;;;1.92;;
21955;SDS011;11142;49.930;8.606;2023-11-19T10:02:02;4.18;;;1.42;;
21955;SDS011;11142;49.930;8.606;2023-11-19T10:04:34;4.63;;;1.60;;
21955;SDS011;11142;49.930;8.606;2023-11-19T10:07:04;3.78;;;1.52;;
21955;SDS011;11142;49.930;8.606;2023-11-19T10:09:33;5.15;;;1.13;;
21955;SDS011;11142;49.930;8.606;2023-11-19T10:12:02;1.50;;;0.93;;
21955;SDS011;11142;49.930;8.606;2023-11-19T10:14:43;2.15;;;1.10;;
21955;SDS011;11142;49.930;8.606;2023-11-19T10:17:13;2.63;;;1.25;;
21955;SDS011;11142;49.930;8.606;2023-11-19T10:19:43;4.82;;;1.45;;
21955;SDS011;11142;49.930;8.606;2023-11-19T10:22:11;5.38;;;1.13;;
21955;SDS011;11142;49.930;8.606;2023-11-19T10:24:41;3.88;;;1.45;;
21955;SDS011;11142;49.930;8.606;2023-11-19T10:29:44;3.20;;;1.40;;
21955;SDS011;11142;49.930;8.606;2023-11-19T10:32:13;6.10;;;1.58;;
21955;SDS011;11142;49.930;8.606;2023-11-19T10:34:54;3.53;;;1.40;;
21955;SDS011;11142;49.930;8.606;2023-11-19T10:37:33;4.35;;;1.73;;
21955;SDS011;11142;49.930;8.606;2023-11-19T10:40:05;4.72;;;2.30;;
21955;SDS011;11142;49.930;8.606;2023-11-19T10:42:37;4.57;;;2.00;;
21955;SDS011;11142;49.930;8.606;2023-11-19T10:45:05;10.00;;;2.30;;
21955;SDS011;11142;49.930;8.606;2023-11-19T10:47:51;5.57;;;1.60;;
21955;SDS011;11142;49.930;8.606;2023-11-19T10:50:21;12.77;;;4.63;;
21955;SDS011;11142;49.930;8.606;2023-11-19T10:52:51;7.13;;;2.55;;
21955;SDS011;11142;49.930;8.606;2023-11-19T10:55:26;8.85;;;3.50;;
21955;SDS011;11142;49.930;8.606;2023-11-19T10:58:00;9.60;;;2.75;;
21955;SDS011;11142;49.930;8.606;2023-11-19T11:00:29;5.90;;;1.65;;
21955;SDS011;11142;49.930;8.606;2023-11-19T11:03:09;5.32;;;1.35;;
21955;SDS011;11142;49.930;8.606;2023-11-19T11:05:41;14.75;;;2.20;;
21955;SDS011;11142;49.930;8.606;2023-11-19T11:08:10;7.30;;;1.90;;
21955;SDS011;11142;49.930;8.606;2023-11-19T11:10:42;5.20;;;1.95;;
21955;SDS011;11142;49.930;8.606;2023-11-19T11:13:15;3.92;;;1.95;;
21955;SDS011;11142;49.930;8.606;2023-11-19T11:15:44;4.45;;;2.30;;
21955;SDS011;11142;49.930;8.606;2023-11-19T11:18:14;5.72;;;1.80;;
21955;SDS011;11142;49.930;8.606;2023-11-19T11:20:43;5.93;;;2.10;;
21955;SDS011;11142;49.930;8.606;2023-11-19T11:23:23;4.47;;;1.52;;
21955;SDS011;11142;49.930;8.606;2023-11-19T11:26:33;5.80;;;1.65;;
21955;SDS011;11142;49.930;8.606;2023-11-19T11:29:24;4.05;;;1.60;;
21955;SDS011;11142;49.930;8.606;2023-11-19T11:32:04;10.10;;;2.45;;
21955;SDS011;11142;49.930;8.606;2023-11-19T11:34:51;10.30;;;3.40;;
21955;SDS011;11142;49.930;8.606;2023-11-19T11:37:32;3.78;;;1.20;;
21955;SDS011;11142;49.930;8.606;2023-11-19T11:40:20;6.20;;;2.00;;
21955;SDS011;11142;49.930;8.606;2023-11-19T11:42:56;14.40;;;4.75;;
21955;SDS011;11142;49.930;8.606;2023-11-19T11:45:36;7.78;;;3.50;;
21955;SDS011;11142;49.930;8.606;2023-11-19T11:48:10;7.25;;;1.35;;
21955;SDS011;11142;49.930;8.606;2023-11-19T11:50:47;3.80;;;1.65;;
21955;SDS011;11142;49.930;8.606;2023-11-19T11:53:20;2.63;;;1.20;;
21955;SDS011;11142;49.930;8.606;2023-11-19T11:55:52;3.78;;;0.90;;
21955;SDS011;11142;49.930;8.606;2023-11-19T11:58:31;5.40;;;1.77;;
21955;SDS011;11142;49.930;8.606;2023-11-19T12:01:04;3.50;;;0.93;;
21955;SDS011;11142;49.930;8.606;2023-11-19T12:03:36;3.90;;;1.08;;
21955;SDS011;11142;49.930;8.606;2023-11-19T12:06:06;4.35;;;0.98;;
21955;SDS011;11142;49.930;8.606;2023-11-19T12:08:37;6.20;;;1.15;;
21955;SDS011;11142;49.930;8.606;2023-11-19T12:11:10;3.88;;;0.90;;
21955;SDS011;11142;49.930;8.606;2023-11-19T12:13:43;2.05;;;1.00;;
21955;SDS011;11142;49.930;8.606;2023-11-19T12:16:16;2.80;;;0.65;;
21955;SDS011;11142;49.930;8.606;2023-11-19T12:18:44;5.45;;;1.25;;
21955;SDS011;11142;49.930;8.606;2023-11-19T12:21:27;3.38;;;1.20;;
21955;SDS011;11142;49.930;8.606;2023-11-19T12:23:59;4.13;;;1.25;;
21955;SDS011;11142;49.930;8.606;2023-11-19T12:26:35;3.47;;;1.10;;
21955;SDS011;11142;49.930;8.606;2023-11-19T12:29:06;3.33;;;1.10;;
21955;SDS011;11142;49.930;8.606;2023-11-19T12:31:36;4.03;;;1.27;;
21955;SDS011;11142;49.930;8.606;2023-11-19T12:34:07;5.13;;;1.10;;
21955;SDS011;11142;49.930;8.606;2023-11-19T12:36:40;3.65;;;0.85;;
21955;SDS011;11142;49.930;8.606;2023-11-19T12:39:11;6.72;;;1.10;;
21955;SDS011;11142;49.930;8.606;2023-11-19T12:41:51;7.57;;;1.03;;
21955;SDS011;11142;49.930;8.606;2023-11-19T12:44:20;2.95;;;1.15;;
21955;SDS011;11142;49.930;8.606;2023-11-19T12:47:01;8.32;;;1.15;;
21955;SDS011;11142;49.930;8.606;2023-11-19T12:49:31;5.35;;;1.63;;
21955;SDS011;11142;49.930;8.606;2023-11-19T12:51:59;3.38;;;1.10;;
21955;SDS011;11142;49.930;8.606;2023-11-19T12:54:35;5.05;;;1.15;;
21955;SDS011;11142;49.930;8.606;2023-11-19T12:57:04;7.00;;;1.58;;
21955;SDS011;11142;49.930;8.606;2023-11-19T12:59:33;1.85;;;0.82;;
21955;SDS011;11142;49.930;8.606;2023-11-19T13:02:01;3.45;;;0.70;;
21955;SDS011;11142;49.930;8.606;2023-11-19T13:04:33;7.68;;;1.50;;
21955;SDS011;11142;49.930;8.606;2023-11-19T13:07:01;6.03;;;1.38;;
21955;SDS011;11142;49.930;8.606;2023-11-19T13:09:32;4.90;;;1.08;;
21955;SDS011;11142;49.930;8.606;2023-11-19T13:12:11;6.15;;;1.55;;
21955;SDS011;11142;49.930;8.606;2023-11-19T13:14:41;15.00;;;1.08;;
21955;SDS011;11142;49.930;8.606;2023-11-19T13:17:14;8.43;;;1.48;;
21955;SDS011;11142;49.930;8.606;2023-11-19T13:19:43;8.93;;;1.58;;
21955;SDS011;11142;49.930;8.606;2023-11-19T13:22:12;3.72;;;1.00;;
21955;SDS011;11142;49.930;8.606;2023-11-19T13:24:40;2.35;;;0.70;;
21955;SDS011;11142;49.930;8.606;2023-11-19T13:27:10;3.95;;;0.80;;
21955;SDS011;11142;49.930;8.606;2023-11-19T13:29:39;2.70;;;1.17;;
21955;SDS011;11142;49.930;8.606;2023-11-19T13:32:07;2.83;;;0.90;;
21955;SDS011;11142;49.930;8.606;2023-11-19T13:34:35;8.02;;;1.20;;
21955;SDS011;11142;49.930;8.606;2023-11-19T13:37:03;5.53;;;1.45;;
21955;SDS011;11142;49.930;8.606;2023-11-19T13:39:31;5.80;;;1.40;;
21955;SDS011;11142;49.930;8.606;2023-11-19T13:42:00;6.32;;;1.48;;
21955;SDS011;11142;49.930;8.606;2023-11-19T13:44:32;3.55;;;1.33;;
21955;SDS011;11142;49.930;8.606;2023-11-19T13:47:00;7.70;;;1.35;;
21955;SDS011;11142;49.930;8.606;2023-11-19T13:49:29;3.38;;;1.42;;
21955;SDS011;11142;49.930;8.606;2023-11-19T13:51:58;4.28;;;0.93;;
21955;SDS011;11142;49.930;8.606;2023-11-19T13:54:26;2.42;;;1.17;;
21955;SDS011;11142;49.930;8.606;2023-11-19T13:56:55;4.78;;;1.52;;
21955;SDS011;11142;49.930;8.606;2023-11-19T13:59:25;5.78;;;1.00;;
21955;SDS011;11142;49.930;8.606;2023-11-19T14:02:00;8.88;;;1.58;;
21955;SDS011;11142;49.930;8.606;2023-11-19T14:04:29;1.65;;;0.60;;
21955;SDS011;11142;49.930;8.606;2023-11-19T14:06:57;5.50;;;1.30;;
21955;SDS011;11142;49.930;8.606;2023-11-19T14:09:25;6.70;;;1.25;;
21955;SDS011;11142;49.930;8.606;2023-11-19T14:11:53;7.25;;;1.80;;
21955;SDS011;11142;49.930;8.606;2023-11-19T14:14:21;4.15;;;0.90;;
21955;SDS011;11142;49.930;8.606;2023-11-19T14:16:50;5.50;;;1.05;;
21955;SDS011;11142;49.930;8.606;2023-11-19T14:19:20;4.65;;;1.45;;
21955;SDS011;11142;49.930;8.606;2023-11-19T14:21:48;6.95;;;1.33;;
21955;SDS011;11142;49.930;8.606;2023-11-19T14:24:18;6.03;;;1.27;;
21955;SDS011;11142;49.930;8.606;2023-11-19T14:26:46;4.88;;;1.50;;
21955;SDS011;11142;49.930;8.606;2023-11-19T14:29:15;3.10;;;1.00;;
21955;SDS011;11142;49.930;8.606;2023-11-19T14:31:43;3.53;;;1.52;;
21955;SDS011;11142;49.930;8.606;2023-11-19T14:34:13;5.18;;;1.48;;
21955;SDS011;11142;49.930;8.606;2023-11-19T14:36:43;4.22;;;0.90;;
21955;SDS011;11142;49.930;8.606;2023-11-19T14:39:11;6.57;;;1.25;;
21955;SDS011;11142;49.930;8.606;2023-11-19T14:41:42;5.18;;;1.15;;
21955;SDS011;11142;49.930;8.606;2023-11-19T14:44:10;3.33;;;1.10;;
21955;SDS011;11142;49.930;8.606;2023-11-19T14:46:39;8.65;;;1.50;;
21955;SDS011;11142;49.930;8.606;2023-11-19T14:49:09;3.67;;;0.98;;
21955;SDS011;11142;49.930;8.606;2023-11-19T14:51:50;4.50;;;1.25;;
21955;SDS011;11142;49.930;8.606;2023-11-19T14:54:19;7.00;;;1.98;;
21955;SDS011;11142;49.930;8.606;2023-11-19T14:56:48;4.95;;;1.13;;
21955;SDS011;11142;49.930;8.606;2023-11-19T14:59:16;8.48;;;1.67;;
21955;SDS011;11142;49.930;8.606;2023-11-19T15:01:46;6.63;;;1.58;;
21955;SDS011;11142;49.930;8.606;2023-11-19T15:04:15;5.90;;;1.63;;
21955;SDS011;11142;49.930;8.606;2023-11-19T15:06:44;4.60;;;1.58;;